x

Smith Island, Wa (sisw1) Weather Station

11:00am - Sun 22nd Oct 2017 All times are PDT. -7 hours from GMT.

  • Wind
    16mph, 17mph gusts
  • Air Temp 53°f
  • Sea Pressure 1019.2mb
  • Smith Island, Wa
  • Smith Island, Wa

More Historic Weather Station data

Upgrade to MSW Pro to gain access to the past 30 days of data for over 8000 Wavebouys and Weather Stations around the globe.

Join

Comparision Forecast

View Surf forecast
   
Sun 10/22 11:00am 16 17 mph 1019.2mb 53f
10:00am 10 14 mph 1018mb 52f
9:00am 21 23 mph 1016.3mb 51f
8:00am 23 26 mph 1014.5mb 52f
7:00am 25 28 mph 1012mb 53f
6:00am 26 33 mph 1010.3mb 53f
5:00am 29 32 mph 1008.9mb 54f
4:00am 18 28 mph 1007mb 53f
3:00am 15 17 mph 1006.2mb 51f
2:00am 5 6 mph 1004.6mb 51f
1:00am 7 7 mph 1003.7mb 51f
12:00am 11 13 mph 1002.7mb 51f
Sat 10/21 11:00pm 8 9 mph 1002.4mb 52f
10:00pm 10 11 mph 1002.2mb 51f
9:00pm 15 15 mph 1001.8mb 51f
8:00pm 24 26 mph 1000.7mb 51f
7:00pm 29 33 mph 1000.5mb 50f
6:00pm 30 33 mph 1000.2mb 49f
5:00pm 32 37 mph 1000.4mb 49f
4:00pm 26 32 mph 1002.7mb 49f
3:00pm 23 26 mph 1004.5mb 49f
2:00pm 32 37 mph 1004.6mb 50f
1:00pm 36 38 mph 1004.9mb 50f
12:00pm 38 44 mph 1005mb 50f
11:00am 34 44 mph 1005mb 49f
10:00am 34 39 mph 1005.2mb 49f
9:00am 33 39 mph 1005.8mb 47f
8:00am 34 38 mph 1006mb 47f
7:00am 37 45 mph 1006.6mb 47f
6:00am 30 32 mph 1008.1mb 47f
5:00am 31 36 mph 1008.9mb 47f
4:00am 29 32 mph 1009.9mb 49f
3:00am 25 28 mph 1010.5mb 48f
2:00am 17 21 mph 1011.3mb 48f
1:00am 22 24 mph 1011.5mb 47f
12:00am 23 26 mph 1012.1mb 46f
Fri 10/20 11:00pm 22 24 mph 1012.5mb 47f
10:00pm 17 17 mph 1012.6mb 47f
9:00pm 13 15 mph 1012.1mb 48f
8:00pm 8 14 mph 1011.8mb 50f
7:00pm 13 17 mph 1010.8mb 50f
6:00pm 13 20 mph 1009.8mb 50f
5:00pm 22 25 mph 1008.8mb 51f
4:00pm 10 21 mph 1008.4mb 52f
3:00pm 11 18 mph 1007.8mb 51f
2:00pm 14 15 mph 1007.4mb 51f
1:00pm 8 9 mph 1006.6mb 51f
12:00pm 6 8 mph 1005.9mb 50f
11:00am 14 15 mph 1004.8mb 50f
10:00am 23 25 mph 1003.6mb 50f
9:00am 21 22 mph 1003.3mb 48f
7:00am 20 21 mph 1002.6mb 48f
6:00am 11 11 mph 1002.4mb 48f
5:00am 10 13 mph 1001.6mb 49f
4:00am 8 10 mph 1000.6mb 49f
3:00am 7 9 mph 1000mb 49f
2:00am 10 14 mph 999.6mb 49f
1:00am 13 18 mph 999mb 49f
12:00am 11 18 mph 998.6mb 48f
Thu 10/19 11:00pm 15 17 mph 998.1mb 49f
10:00pm 7 9 mph 998.1mb 49f
9:00pm 10 13 mph 997.9mb 50f
8:00pm 21 22 mph 997.5mb 50f
7:00pm 22 25 mph 997.1mb 50f
6:00pm 21 23 mph 996.8mb 51f
5:00pm 10 11 mph 997mb 51f
4:00pm 13 14 mph 996.9mb 50f
3:00pm 2 2 mph 998mb 51f
2:00pm 3 6 mph 998.6mb 51f
1:00pm 7 8 mph 998.7mb 51f
12:00pm 10 14 mph 999mb 52f
11:00am 24 26 mph 998.3mb 53f
10:00am 24 26 mph 998.6mb 53f
9:00am 22 24 mph 998.5mb 52f
8:00am 23 25 mph 999mb 51f
7:00am 21 23 mph 999.3mb 52f
6:00am 20 22 mph 999.8mb 52f
5:00am 20 22 mph 1000.2mb 52f
4:00am 17 20 mph 1000.5mb 51f
3:00am 20 21 mph 1000.4mb 52f
2:00am 21 22 mph 1000.3mb 52f
1:00am 16 17 mph 1000.6mb 52f
12:00am 18 21 mph 1000.4mb 53f
Wed 10/18 11:00pm 22 24 mph 1000mb 53f
10:00pm 14 16 mph 1000.2mb 51f
9:00pm 7 7 mph 1001.1mb 51f
8:00pm 10 14 mph 1001.6mb 52f